Time;durP1;ratioP1;P1;durP2;ratioP2;P2;SDS_P1;SDS_P2;PMS_P1;PMS_P2;Temp;Humidity;BMP_temperature;BMP_pressure;BME280_temperature;BME280_humidity;BME280_pressure;Samples;Min_cycle;Max_cycle;Signal;HPM_P1;HPM_P2
2023/01/21 00:02:41;;;;;;;;;;;4.20;78.50;;;3.01;61.40;101373.41;6149584;23;19921;-78
2023/01/21 00:05:09;;;;;;;;;;;4.20;78.40;;;2.88;61.59;101375.50;6149101;23;19925;-79
2023/01/21 00:07:35;;;;;;;;;;;4.20;78.40;;;2.94;61.49;101383.69;6148937;23;19920;-79
2023/01/21 00:10:03;;;;;;;;;;;4.20;78.50;;;2.99;61.36;101391.19;6148133;23;19924;-79
2023/01/21 00:12:30;;;;;;;;;;;4.20;78.30;;;2.98;61.44;101395.63;6122236;23;19927;-79
2023/01/21 00:14:56;;;;;;;;;;;4.20;78.20;;;2.93;61.23;101391.72;6122919;23;19936;-79
2023/01/21 00:17:23;;;;;;;;;;;4.20;78.00;;;2.90;61.50;101397.28;6121643;23;19927;-77
2023/01/21 00:19:52;;;;;;;;;;;4.20;78.00;;;2.89;61.15;101406.16;6121136;23;20248;-78
2023/01/21 00:22:19;;;;;;;;;;;4.20;77.70;;;2.86;61.19;101409.88;6121920;23;20339;-78
2023/01/21 00:24:46;;;;;;;;;;;4.20;77.90;;;2.90;61.41;101419.19;6122069;23;19923;-79
2023/01/21 00:27:13;;;;;;;;;;;4.20;78.00;;;2.94;61.33;101417.94;6121163;23;19921;-78
2023/01/21 00:29:40;;;;;;;;;;;4.20;77.90;;;2.96;61.10;101416.00;6122048;23;19921;-78
2023/01/21 00:32:07;;;;;;;;;;;4.20;77.80;;;2.94;60.86;101412.69;6121212;23;19921;-78
2023/01/21 00:34:34;;;;;;;;;;;4.20;77.80;;;2.87;61.16;101422.09;6120328;23;19920;-78
2023/01/21 00:37:03;;;;;;;;;;;4.10;78.00;;;2.83;60.93;101424.19;6121173;23;19920;-78
2023/01/21 00:39:30;;;;;;;;;;;4.10;77.80;;;2.84;60.78;101427.66;6122505;23;20003;-78
2023/01/21 00:41:56;;;;;;;;;;;4.10;77.40;;;2.82;60.72;101429.56;6121401;23;20279;-78
2023/01/21 00:44:23;;;;;;;;;;;4.10;77.00;;;2.81;60.05;101433.19;6122285;23;19917;-78
2023/01/21 00:46:50;;;;;;;;;;;4.10;76.80;;;2.72;60.25;101441.88;6121899;23;19921;-79
2023/01/21 00:49:17;;;;;;;;;;;4.10;76.70;;;2.71;60.59;101440.22;6122440;23;19925;-78
2023/01/21 00:51:44;;;;;;;;;;;4.10;77.20;;;2.70;60.51;101449.09;6121743;23;19920;-78
2023/01/21 00:54:12;;;;;;;;;;;4.00;77.20;;;2.75;60.86;101446.91;6122147;23;19943;-78
2023/01/21 00:56:39;;;;;;;;;;;4.00;77.30;;;2.78;60.76;101449.25;6121623;23;19921;-79
2023/01/21 00:59:07;;;;;;;;;;;4.00;77.50;;;2.78;60.72;101455.38;6122013;23;19923;-78
2023/01/21 01:01:36;;;;;;;;;;;4.00;77.50;;;2.69;60.80;101461.44;6119805;23;20342;-78
2023/01/21 01:04:04;;;;;;;;;;;3.90;78.00;;;2.74;61.35;101453.16;6121969;23;19924;-78
2023/01/21 01:06:32;;;;;;;;;;;3.90;78.10;;;2.72;61.18;101457.69;6121105;23;19976;-78
2023/01/21 01:08:59;;;;;;;;;;;3.90;78.20;;;2.76;60.92;101467.00;6121349;23;19924;-78
2023/01/21 01:11:28;;;;;;;;;;;3.90;78.20;;;2.64;61.38;101471.56;6121634;23;20095;-78
2023/01/21 01:13:55;;;;;;;;;;;3.90;78.20;;;2.30;62.07;101473.66;6121232;23;19917;-78
2023/01/21 01:16:22;;;;;;;;;;;3.80;78.40;;;2.38;62.28;101473.81;6120883;23;19924;-78
2023/01/21 01:18:51;;;;;;;;;;;3.80;78.80;;;2.44;62.10;101483.84;6121352;23;19920;-78
2023/01/21 01:21:20;;;;;;;;;;;3.70;78.80;;;2.32;62.57;101495.41;6122474;23;20225;-79
2023/01/21 01:23:47;;;;;;;;;;;3.90;79.10;;;2.30;62.57;101500.81;6121950;23;20259;-78
2023/01/21 01:26:15;;;;;;;;;;;3.70;79.10;;;2.41;62.58;101496.41;6121167;23;20324;-78
2023/01/21 01:28:43;;;;;;;;;;;3.70;79.30;;;2.47;62.33;101506.41;6121877;23;19921;-78
2023/01/21 01:31:13;;;;;;;;;;;3.70;79.10;;;2.52;62.41;101506.84;6121398;23;19979;-78
2023/01/21 01:33:40;;;;;;;;;;;3.70;79.20;;;2.55;62.26;101517.94;6121528;23;20004;-78
2023/01/21 01:36:10;;;;;;;;;;;3.70;79.10;;;2.55;62.23;101520.59;6121197;23;19931;-78
2023/01/21 01:38:37;;;;;;;;;;;3.70;79.30;;;2.42;62.29;101522.59;6121440;23;20446;-78
2023/01/21 01:41:04;;;;;;;;;;;3.70;79.20;;;2.46;62.28;101528.44;6121645;23;19920;-78
2023/01/21 01:43:52;;;;;;;;;;;3.70;79.30;;;2.43;62.18;101520.78;6120578;23;19928;-78
2023/01/21 01:46:19;;;;;;;;;;;3.70;79.20;;;2.44;62.16;101520.69;6121760;23;19924;-78
2023/01/21 01:48:50;;;;;;;;;;;3.70;79.30;;;2.40;62.54;101523.72;6121121;23;20263;-78
2023/01/21 01:51:19;;;;;;;;;;;3.60;79.40;;;2.44;62.46;101527.72;6120862;23;19921;-79
2023/01/21 01:53:47;;;;;;;;;;;3.60;79.40;;;2.45;62.26;101530.25;6121861;23;19921;-78
2023/01/21 01:56:14;;;;;;;;;;;3.60;79.40;;;2.48;62.29;101534.41;6121387;23;19916;-78
2023/01/21 01:58:42;;;;;;;;;;;3.70;79.50;;;2.47;62.23;101533.56;6120419;23;19920;-78
2023/01/21 02:01:10;;;;;;;;;;;3.70;79.30;;;2.46;62.05;101541.59;6121508;23;19924;-78
2023/01/21 02:03:45;;;;;;;;;;;3.60;79.40;;;2.47;62.00;101546.72;6121526;23;19921;-78
2023/01/21 02:06:13;;;;;;;;;;;3.70;79.30;;;2.52;62.00;101552.44;6121597;23;19917;-78
2023/01/21 02:08:40;;;;;;;;;;;3.70;79.10;;;2.53;61.96;101542.72;6121497;23;19921;-78
2023/01/21 02:11:11;;;;;;;;;;;3.90;79.10;;;2.52;61.88;101547.16;6121786;23;20339;-78
2023/01/21 02:13:39;;;;;;;;;;;3.70;79.00;;;2.54;61.54;101554.97;6121285;23;19931;-78
2023/01/21 02:16:17;;;;;;;;;;;3.70;78.90;;;2.52;61.29;101547.16;6120789;23;20684;-78
2023/01/21 02:18:50;;;;;;;;;;;3.70;78.80;;;2.50;61.74;101562.28;6121544;23;20491;-78
2023/01/21 02:21:52;;;;;;;;;;;3.70;78.90;;;2.52;61.55;101551.59;6121847;23;19995;-78
2023/01/21 02:24:48;;;;;;;;;;;3.70;79.00;;;2.52;61.62;101560.34;6121679;23;19916;-78
2023/01/21 02:27:41;;;;;;;;;;;3.70;78.70;;;2.53;61.13;101567.25;6121403;23;20267;-78
2023/01/21 02:30:43;;;;;;;;;;;3.70;78.30;;;2.50;61.05;101570.19;6123049;23;19924;-78
2023/01/21 02:33:45;;;;;;;;;;;3.80;78.00;;;2.52;60.77;101578.75;6122997;23;19917;-78
2023/01/21 02:36:25;;;;;;;;;;;3.80;77.80;;;2.49;60.94;101581.69;6122595;23;19968;-78
2023/01/21 02:38:57;;;;;;;;;;;3.80;77.70;;;2.47;61.08;101580.97;6123451;23;20340;-78
2023/01/21 02:41:32;;;;;;;;;;;3.80;77.80;;;2.51;60.95;101579.72;6122943;23;19917;-78
2023/01/21 02:44:06;;;;;;;;;;;3.80;77.80;;;2.47;61.00;101583.59;6123505;23;19921;-78
2023/01/21 02:46:39;;;;;;;;;;;3.80;77.40;;;2.44;60.87;101585.63;6123202;23;19921;-78
2023/01/21 02:49:11;;;;;;;;;;;3.80;77.40;;;2.44;60.77;101586.50;6122701;23;19921;-78
2023/01/21 02:51:39;;;;;;;;;;;3.80;77.30;;;2.39;60.65;101586.06;6123174;23;20374;-78
2023/01/21 02:54:14;;;;;;;;;;;3.80;77.30;;;2.41;60.94;101596.44;6122630;23;20032;-78
2023/01/21 02:56:42;;;;;;;;;;;3.80;77.30;;;2.41;60.82;101594.66;6123159;23;19928;-78
2023/01/21 02:59:10;;;;;;;;;;;3.70;77.40;;;2.44;60.75;101596.16;6123421;23;20354;-78
2023/01/21 03:01:48;;;;;;;;;;;3.70;77.20;;;2.43;60.26;101605.03;6122612;23;19927;-78
2023/01/21 03:04:37;;;;;;;;;;;3.70;77.10;;;2.38;60.41;101609.84;6121749;23;20549;-78
2023/01/21 03:07:10;;;;;;;;;;;3.70;77.20;;;2.40;60.78;101614.06;6118867;23;19916;-78
2023/01/21 03:09:37;;;;;;;;;;;3.70;77.10;;;2.40;60.15;101614.06;6123049;23;19920;-78
2023/01/21 03:12:20;;;;;;;;;;;3.70;76.90;;;2.39;59.98;101619.41;6122653;23;19927;-78
2023/01/21 03:17:41;;;;;;;;;;;3.70;76.40;;;2.32;59.82;101642.81;6122679;23;19921;-78
2023/01/21 03:20:12;;;;;;;;;;;3.70;76.40;;;2.33;59.91;101641.84;6122793;23;19932;-78
2023/01/21 03:22:41;;;;;;;;;;;3.70;76.30;;;2.33;59.55;101644.47;6122319;23;19921;-78
2023/01/21 03:25:11;;;;;;;;;;;3.70;76.00;;;2.33;59.52;101637.41;6120948;23;20303;-78
2023/01/21 03:27:40;;;;;;;;;;;3.70;75.80;;;2.33;59.04;101640.03;6121175;23;19928;-78
2023/01/21 03:30:11;;;;;;;;;;;3.70;75.60;;;2.31;59.10;101651.66;6121958;23;20324;-78
2023/01/21 03:32:39;;;;;;;;;;;3.70;75.40;;;2.28;58.91;101651.91;6122624;23;19925;-78
2023/01/21 03:35:08;;;;;;;;;;;3.70;75.40;;;2.27;58.80;101655.50;6123156;23;19920;-78
2023/01/21 03:37:40;;;;;;;;;;;3.60;75.20;;;2.25;58.81;101657.44;6122564;23;19917;-78
2023/01/21 03:40:18;;;;;;;;;;;3.60;75.10;;;2.22;58.67;101662.97;6122591;23;20006;-78
2023/01/21 03:42:46;;;;;;;;;;;3.60;75.00;;;2.21;58.80;101650.78;6122996;23;19923;-78
2023/01/21 03:45:14;;;;;;;;;;;3.60;75.00;;;2.18;59.08;101659.75;6122270;23;19920;-78
2023/01/21 03:47:44;;;;;;;;;;;3.50;75.30;;;2.16;58.95;101663.47;6122757;23;19955;-78
2023/01/21 03:50:15;;;;;;;;;;;3.50;75.60;;;2.17;59.31;101665.13;6122673;23;20411;-78
2023/01/21 03:52:44;;;;;;;;;;;3.50;75.80;;;2.16;59.32;101660.84;6122712;23;19920;-78
2023/01/21 03:55:13;;;;;;;;;;;3.50;75.80;;;2.18;59.20;101665.00;6123002;23;19952;-78
2023/01/21 03:57:40;;;;;;;;;;;3.50;75.80;;;2.18;59.41;101657.09;6121349;23;19917;-78
2023/01/21 04:00:09;;;;;;;;;;;3.60;76.00;;;2.21;59.47;101663.94;6121994;23;19921;-78
2023/01/21 04:02:36;;;;;;;;;;;3.50;76.10;;;2.24;59.44;101664.47;6122250;23;19917;-78
2023/01/21 04:05:03;;;;;;;;;;;3.50;76.10;;;2.23;58.96;101667.25;6122854;23;19921;-78
2023/01/21 04:07:30;;;;;;;;;;;3.50;75.80;;;2.20;59.17;101663.09;6122736;23;19917;-78
2023/01/21 04:09:57;;;;;;;;;;;3.50;75.60;;;2.15;59.06;101670.53;6122432;23;19921;-78
2023/01/21 04:12:25;;;;;;;;;;;3.50;75.60;;;2.09;59.28;101667.56;6122429;23;19921;-78
2023/01/21 04:14:52;;;;;;;;;;;3.40;75.80;;;2.11;59.63;101666.50;6119805;23;19931;-78
2023/01/21 04:17:19;;;;;;;;;;;3.50;75.90;;;2.08;59.52;101671.16;6121793;23;19920;-78
2023/01/21 04:19:46;;;;;;;;;;;3.50;75.80;;;2.08;59.51;101671.16;6122334;23;19991;-78
2023/01/21 04:22:13;;;;;;;;;;;3.50;75.80;;;2.09;59.20;101672.81;6120447;23;19927;-78
2023/01/21 04:24:40;;;;;;;;;;;3.40;75.40;;;2.10;58.99;101679.75;6122542;23;19923;-78
2023/01/21 04:27:07;;;;;;;;;;;3.50;75.40;;;2.11;58.87;101679.63;6119691;23;20267;-78
2023/01/21 04:29:35;;;;;;;;;;;3.50;75.20;;;2.11;58.79;101686.72;6122211;23;20555;-78
2023/01/21 04:32:02;;;;;;;;;;;3.40;75.10;;;2.09;58.63;101689.44;6122356;23;20354;-78
2023/01/21 04:34:29;;;;;;;;;;;3.40;75.00;;;2.06;58.69;101689.72;6121637;23;19920;-78
2023/01/21 04:36:56;;;;;;;;;;;3.40;75.00;;;2.02;58.60;101689.13;6122367;23;19923;-78
2023/01/21 04:39:23;;;;;;;;;;;3.40;74.80;;;2.01;58.55;101690.09;6120970;23;19920;-78
2023/01/21 04:41:50;;;;;;;;;;;3.40;74.80;;;2.03;58.35;101689.94;6121786;23;19955;-78
2023/01/21 04:44:17;;;;;;;;;;;3.40;74.50;;;2.04;58.07;101700.34;6121858;23;19928;-78
2023/01/21 04:46:45;;;;;;;;;;;3.40;74.50;;;1.99;58.27;101699.88;6121813;23;19927;-78
2023/01/21 04:49:12;;;;;;;;;;;3.40;74.30;;;1.96;58.05;101694.88;6122409;23;19921;-78
2023/01/21 04:51:39;;;;;;;;;;;3.40;74.30;;;1.94;58.12;101688.91;6121047;23;19921;-78
2023/01/21 04:54:06;;;;;;;;;;;3.30;74.20;;;1.96;57.83;101691.44;6121884;23;19917;-78
2023/01/21 04:56:33;;;;;;;;;;;3.40;74.20;;;1.97;57.88;101695.72;6121714;23;19920;-78
2023/01/21 04:59:00;;;;;;;;;;;3.30;74.10;;;1.95;57.63;101689.72;6122103;23;19921;-78
2023/01/21 05:01:27;;;;;;;;;;;3.30;74.00;;;1.95;57.98;101693.22;6122015;23;19949;-78
2023/01/21 05:03:55;;;;;;;;;;;3.30;74.30;;;1.94;58.06;101699.41;6121503;23;20367;-78
2023/01/21 05:06:22;;;;;;;;;;;3.20;74.10;;;1.91;57.98;101702.31;6121606;23;20329;-78
2023/01/21 05:08:49;;;;;;;;;;;3.30;74.30;;;1.88;57.80;101707.81;6121341;23;19924;-78
2023/01/21 05:11:18;;;;;;;;;;;3.20;74.10;;;1.85;57.73;101705.41;6121951;23;19916;-78
2023/01/21 05:13:45;;;;;;;;;;;3.20;73.90;;;1.83;57.74;101712.63;6120922;23;20000;-78
2023/01/21 05:16:13;;;;;;;;;;;3.20;73.80;;;1.82;57.69;101715.38;6121578;23;19921;-78
2023/01/21 05:18:40;;;;;;;;;;;3.20;73.90;;;1.84;57.78;101718.72;6122034;23;19928;-78
2023/01/21 05:21:09;;;;;;;;;;;3.20;73.90;;;1.84;57.47;101718.72;6122249;23;20018;-78
2023/01/21 05:23:35;;;;;;;;;;;3.40;73.60;;;1.82;57.25;101731.16;6120477;23;19936;-78
2023/01/21 05:26:02;;;;;;;;;;;3.20;73.30;;;1.77;57.35;101737.63;6121567;23;19921;-78
2023/01/21 05:28:29;;;;;;;;;;;3.10;73.30;;;1.73;57.28;101743.25;6121765;23;19925;-78
2023/01/21 05:31:00;;;;;;;;;;;3.10;73.30;;;1.75;57.33;101741.31;6119889;23;19999;-78
2023/01/21 05:33:30;;;;;;;;;;;3.10;73.30;;;1.74;57.16;101744.91;6121608;23;19916;-78
2023/01/21 05:35:57;;;;;;;;;;;3.10;73.30;;;1.72;57.14;101746.84;6121522;23;19917;-78
2023/01/21 05:38:25;;;;;;;;;;;3.10;73.20;;;1.66;57.24;101749.94;6122163;23;19939;-78
2023/01/21 05:40:56;;;;;;;;;;;3.10;73.20;;;1.65;57.39;101764.88;6119784;23;19917;-78
2023/01/21 05:43:24;;;;;;;;;;;3.00;73.30;;;1.69;57.38;101760.22;6121268;23;19975;-78
2023/01/21 05:45:51;;;;;;;;;;;3.00;73.40;;;1.67;57.37;101770.88;6121606;23;19930;-78
2023/01/21 05:48:18;;;;;;;;;;;3.00;73.30;;;1.65;57.58;101767.50;6121709;23;19920;-78
2023/01/21 05:50:45;;;;;;;;;;;3.00;73.50;;;1.64;57.60;101776.34;6121867;23;19944;-78
2023/01/21 05:53:12;;;;;;;;;;;3.00;73.70;;;1.62;57.83;101770.38;6121947;23;20027;-78
2023/01/21 05:55:40;;;;;;;;;;;3.20;74.00;;;1.63;57.72;101781.75;6121492;23;20618;-78
2023/01/21 05:58:07;;;;;;;;;;;3.20;73.90;;;1.62;58.02;101773.03;6119722;23;19917;-78
2023/01/21 06:00:34;;;;;;;;;;;3.00;74.20;;;1.61;58.22;101775.75;6124066;23;19919;-77
2023/01/21 06:03:01;;;;;;;;;;;3.00;74.30;;;1.61;58.09;101781.88;6150830;23;19920;-77
2023/01/21 06:05:29;;;;;;;;;;;3.00;74.30;;;1.62;58.07;101791.44;6150834;23;19946;-77
2023/01/21 06:07:56;;;;;;;;;;;3.00;74.30;;;1.61;58.30;101792.38;6150913;23;19928;-77
2023/01/21 06:10:22;;;;;;;;;;;3.00;74.40;;;1.66;58.34;101792.88;6151108;23;19939;-76
2023/01/21 06:12:51;;;;;;;;;;;3.00;74.50;;;1.70;58.22;101796.91;6150617;23;19997;-77
2023/01/21 06:15:18;;;;;;;;;;;3.00;74.60;;;1.65;58.45;101798.22;6150170;23;19988;-77
2023/01/21 06:17:45;;;;;;;;;;;3.00;74.80;;;1.64;58.75;101801.81;6150671;23;19921;-77
2023/01/21 06:20:13;;;;;;;;;;;3.00;75.00;;;1.64;58.75;101804.44;6151037;23;19916;-77
2023/01/21 06:22:40;;;;;;;;;;;3.00;75.10;;;1.66;58.65;101805.16;6151448;23;19924;-76
2023/01/21 06:25:07;;;;;;;;;;;3.10;75.00;;;1.68;58.54;101808.50;6150805;23;19921;-77
2023/01/21 06:27:36;;;;;;;;;;;3.00;74.80;;;1.67;58.38;101809.47;6150617;23;19931;-77
2023/01/21 06:30:05;;;;;;;;;;;3.00;74.70;;;1.65;58.33;101809.56;6150259;23;20008;-75
2023/01/21 06:32:33;;;;;;;;;;;3.00;74.60;;;1.64;58.23;101813.16;6150699;23;20297;-75
2023/01/21 06:35:00;;;;;;;;;;;3.00;74.50;;;1.64;58.29;101807.06;6150857;23;19921;-74
2023/01/21 06:37:27;;;;;;;;;;;3.00;74.50;;;1.64;58.39;101809.69;6150644;23;19921;-75
2023/01/21 06:39:54;;;;;;;;;;;3.00;74.80;;;1.65;58.78;101822.72;6149282;23;19924;-74
2023/01/21 06:42:21;;;;;;;;;;;3.00;75.20;;;1.65;58.71;101819.25;6150967;23;20373;-74
2023/01/21 06:44:48;;;;;;;;;;;3.00;75.00;;;1.64;58.93;101820.22;6148986;23;19924;-74
2023/01/21 06:47:16;;;;;;;;;;;3.00;75.10;;;1.65;58.91;101819.25;6150778;23;19936;-74
2023/01/21 06:49:43;;;;;;;;;;;3.00;75.20;;;1.64;59.10;101826.31;6149085;23;19921;-74
2023/01/21 06:52:10;;;;;;;;;;;3.00;75.30;;;1.65;58.80;101830.59;6151351;23;19920;-74
2023/01/21 06:54:37;;;;;;;;;;;3.00;75.30;;;1.65;58.89;101835.03;6150516;23;19922;-74
2023/01/21 06:57:04;;;;;;;;;;;2.90;75.40;;;1.62;59.10;101837.91;6150712;23;19927;-74
2023/01/21 06:59:31;;;;;;;;;;;3.00;75.40;;;1.62;58.96;101841.38;6150594;23;19920;-75
2023/01/21 07:01:58;;;;;;;;;;;3.00;75.40;;;1.61;58.96;101844.97;6150185;23;20316;-74
2023/01/21 07:04:27;;;;;;;;;;;2.90;75.40;;;1.61;59.14;101844.97;6150714;23;19920;-74
2023/01/21 07:06:54;;;;;;;;;;;2.90;75.60;;;1.65;59.26;101840.28;6150641;23;19952;-75
2023/01/21 07:09:21;;;;;;;;;;;2.90;75.80;;;1.61;59.28;101858.13;6150566;23;20312;-74
2023/01/21 07:11:48;;;;;;;;;;;2.90;76.00;;;1.62;59.55;101859.78;6150490;23;19916;-74
2023/01/21 07:14:15;;;;;;;;;;;2.90;76.10;;;1.63;59.59;101860.63;6151819;23;19944;-74
2023/01/21 07:16:42;;;;;;;;;;;2.90;76.30;;;1.66;59.47;101869.13;6151321;23;19999;-75
2023/01/21 07:19:09;;;;;;;;;;;2.90;76.30;;;1.65;59.49;101872.69;6151953;23;19928;-75
2023/01/21 07:21:40;;;;;;;;;;;2.90;76.40;;;1.61;59.77;101870.41;6151694;23;19923;-80
2023/01/21 07:24:07;;;;;;;;;;;3.00;76.60;;;1.62;59.75;101878.19;6152603;23;20004;-75
2023/01/21 07:26:36;;;;;;;;;;;2.80;76.50;;;1.60;59.82;101887.97;6151851;23;19924;-76
2023/01/21 07:29:04;;;;;;;;;;;2.80;76.60;;;1.60;59.87;101880.09;6152699;23;19920;-75
2023/01/21 07:31:31;;;;;;;;;;;2.90;76.90;;;1.61;59.92;101894.06;6152748;23;19921;-75
2023/01/21 07:33:58;;;;;;;;;;;2.90;76.70;;;1.59;59.90;101893.34;6151258;23;19999;-76
2023/01/21 07:36:25;;;;;;;;;;;2.90;76.60;;;1.57;60.15;101896.13;6151612;23;20328;-75
2023/01/21 07:38:54;;;;;;;;;;;2.90;76.80;;;1.52;60.39;101895.63;6151899;23;19927;-77
2023/01/21 07:41:21;;;;;;;;;;;2.80;77.10;;;1.50;60.83;101894.88;6152425;23;19920;-76
2023/01/21 07:43:48;;;;;;;;;;;2.80;77.60;;;1.35;61.29;101896.06;6151687;23;19917;-75
2023/01/21 07:46:15;;;;;;;;;;;2.90;78.20;;;1.35;61.70;101899.53;6151389;23;20358;-75
2023/01/21 07:48:42;;;;;;;;;;;2.60;78.60;;;1.34;61.99;101902.28;6151660;23;19920;-75
2023/01/21 07:51:09;;;;;;;;;;;2.60;79.00;;;1.37;62.16;101899.44;6151037;23;19999;-75
2023/01/21 07:53:36;;;;;;;;;;;2.60;79.30;;;1.44;62.30;101903.25;6151916;23;20382;-76
2023/01/21 07:56:06;;;;;;;;;;;2.60;79.40;;;1.47;62.15;101909.13;6151619;23;19916;-75
2023/01/21 07:58:33;;;;;;;;;;;2.70;79.60;;;1.37;62.96;101912.56;6151146;23;19928;-75
2023/01/21 08:01:02;;;;;;;;;;;2.60;79.80;;;1.40;62.87;101914.94;6151407;23;19928;-76
2023/01/21 08:03:29;;;;;;;;;;;2.60;80.00;;;1.40;62.98;101930.72;6151446;23;19926;-76
2023/01/21 08:05:56;;;;;;;;;;;2.60;80.20;;;1.22;63.80;101922.41;6151649;23;20012;-76
2023/01/21 08:08:23;;;;;;;;;;;2.50;80.60;;;1.26;63.88;101924.69;6151084;23;19923;-76
2023/01/21 08:10:54;;;;;;;;;;;2.50;80.90;;;1.20;64.14;101934.84;6151473;23;19927;-76
2023/01/21 08:13:22;;;;;;;;;;;2.50;81.10;;;0.87;65.45;101933.72;6151123;23;19921;-77
2023/01/21 08:15:50;;;;;;;;;;;2.50;81.40;;;0.95;65.64;101936.66;6150089;23;19924;-77
2023/01/21 08:18:17;;;;;;;;;;;2.40;81.80;;;0.55;66.75;101943.13;6150898;23;19920;-77
2023/01/21 08:20:44;;;;;;;;;;;2.30;82.00;;;0.61;67.13;101945.28;6152084;23;19916;-76
2023/01/21 08:23:11;;;;;;;;;;;2.40;82.60;;;0.75;67.18;101948.59;6151841;23;19921;-76
2023/01/21 08:25:38;;;;;;;;;;;2.20;82.70;;;0.92;66.69;101946.53;6150396;23;20324;-76
2023/01/21 08:28:05;;;;;;;;;;;2.30;83.00;;;0.85;66.68;101948.78;6151343;23;19921;-77
2023/01/21 08:30:34;;;;;;;;;;;2.30;83.00;;;0.83;67.16;101948.06;6149322;23;19932;-77
2023/01/21 08:33:01;;;;;;;;;;;2.30;83.30;;;1.02;66.97;101950.16;6151231;23;19927;-77
2023/01/21 08:35:28;;;;;;;;;;;2.30;83.50;;;1.10;66.55;101949.59;6151084;23;20002;-76
2023/01/21 08:37:56;;;;;;;;;;;2.40;83.30;;;1.21;66.69;101942.59;6151069;23;20003;-76
2023/01/21 08:40:25;;;;;;;;;;;2.40;83.30;;;1.24;66.03;101946.81;6151681;23;19956;-76
2023/01/21 08:42:52;;;;;;;;;;;2.50;83.30;;;1.30;66.31;101946.34;6151150;23;19961;-76
2023/01/21 08:45:18;;;;;;;;;;;2.50;83.50;;;1.41;65.93;101949.00;6151126;23;19923;-76
2023/01/21 08:47:47;;;;;;;;;;;2.50;83.20;;;1.44;65.97;101948.78;6151850;23;20240;-76
2023/01/21 08:50:14;;;;;;;;;;;2.60;83.30;;;1.47;65.91;101953.81;6151146;23;19939;-76
2023/01/21 08:52:41;;;;;;;;;;;2.60;83.30;;;1.50;65.92;101956.19;6151455;23;20380;-76
2023/01/21 08:55:08;;;;;;;;;;;2.60;83.30;;;1.52;65.80;101956.94;6151767;23;20259;-77
2023/01/21 08:57:39;;;;;;;;;;;2.60;83.20;;;1.56;66.01;101960.13;6150440;23;20528;-76
2023/01/21 09:00:07;;;;;;;;;;;2.70;83.60;;;1.61;66.04;101962.44;6149474;23;19973;-77
2023/01/21 09:02:34;;;;;;;;;;;2.70;83.50;;;1.58;66.01;101965.31;6151081;23;19939;-78
2023/01/21 09:05:02;;;;;;;;;;;2.70;83.30;;;1.58;66.17;101968.78;6151004;23;19920;-75
2023/01/21 09:07:29;;;;;;;;;;;2.80;83.50;;;1.63;67.10;101974.53;6151220;23;20000;-77
2023/01/21 09:09:56;;;;;;;;;;;2.80;84.20;;;1.70;66.55;101974.88;6151045;23;19924;-77
2023/01/21 09:12:23;;;;;;;;;;;2.80;83.70;;;1.59;66.25;101977.50;6151201;23;19927;-77
2023/01/21 09:14:50;;;;;;;;;;;2.80;83.30;;;1.51;66.51;101978.91;6149581;23;20011;-76
2023/01/21 09:17:17;;;;;;;;;;;2.80;83.30;;;1.51;66.61;101983.31;6150221;23;19920;-77
2023/01/21 09:19:44;;;;;;;;;;;2.90;83.50;;;1.54;66.95;101986.56;6150890;23;19927;-77
2023/01/21 09:22:12;;;;;;;;;;;2.80;83.60;;;1.60;66.78;101990.50;6150129;23;19955;-76
2023/01/21 09:24:39;;;;;;;;;;;2.80;83.80;;;1.59;66.62;101996.72;6151064;23;19967;-76
2023/01/21 09:27:06;;;;;;;;;;;2.90;83.70;;;1.57;66.64;101989.94;6150869;23;19946;-76
2023/01/21 09:29:33;;;;;;;;;;;2.80;83.70;;;1.52;67.02;101993.72;6151198;23;19920;-75
2023/01/21 09:32:00;;;;;;;;;;;2.80;83.90;;;1.51;67.36;102002.59;6149798;23;19916;-76
2023/01/21 09:34:27;;;;;;;;;;;2.80;83.90;;;1.59;66.98;102003.78;6148827;23;19928;-77
2023/01/21 09:36:55;;;;;;;;;;;2.80;83.90;;;1.43;67.17;101999.69;6150583;23;19923;-77
2023/01/21 09:39:23;;;;;;;;;;;2.80;83.70;;;1.32;68.05;102002.25;6150892;23;19920;-76
2023/01/21 09:41:51;;;;;;;;;;;2.80;83.90;;;1.20;68.35;102011.88;6151175;23;19963;-76
2023/01/21 09:44:24;;;;;;;;;;;2.70;84.10;;;1.22;68.48;102014.38;6148861;23;20224;-76
2023/01/21 09:46:56;;;;;;;;;;;2.70;84.50;;;1.10;68.73;102023.16;6150941;23;19920;-75
2023/01/21 09:49:28;;;;;;;;;;;2.70;84.40;;;1.19;69.09;102023.34;6151036;23;19971;-76
2023/01/21 09:52:01;;;;;;;;;;;2.70;84.90;;;1.37;69.05;102022.97;6149831;23;19931;-76
2023/01/21 09:54:31;;;;;;;;;;;2.70;85.00;;;1.46;68.68;102023.09;6150612;23;19916;-76
2023/01/21 09:57:35;;;;;;;;;;;2.70;85.10;;;1.49;68.25;102030.75;6150375;23;19928;-76
2023/01/21 10:00:29;;;;;;;;;;;2.80;85.00;;;1.48;68.63;102033.50;6151057;23;19920;-76
2023/01/21 10:03:01;;;;;;;;;;;2.80;85.10;;;1.65;68.54;102043.59;6151328;23;19921;-76
2023/01/21 10:05:42;;;;;;;;;;;2.80;85.30;;;1.71;68.31;102043.16;6149957;23;19947;-76
2023/01/21 10:08:17;;;;;;;;;;;2.90;85.30;;;1.73;68.43;102048.28;6150126;23;19920;-76
2023/01/21 10:10:51;;;;;;;;;;;2.90;85.20;;;1.82;68.39;102041.50;6150432;23;19920;-76
2023/01/21 10:13:31;;;;;;;;;;;2.90;85.50;;;1.78;68.43;102043.53;6151089;23;19927;-76
2023/01/21 10:16:06;;;;;;;;;;;2.90;85.30;;;1.84;68.39;102040.44;6150464;23;19920;-76
2023/01/21 10:18:37;;;;;;;;;;;3.00;85.70;;;1.58;68.68;102042.38;6148050;23;19927;-76
2023/01/21 10:21:08;;;;;;;;;;;2.90;85.10;;;1.65;68.85;102040.13;6150219;23;19920;-82
2023/01/21 10:23:39;;;;;;;;;;;2.90;85.40;;;1.55;68.87;102035.56;6149969;23;20015;-77
2023/01/21 10:26:10;;;;;;;;;;;2.90;85.30;;;1.71;68.99;102044.97;6150115;23;19963;-92
2023/01/21 10:28:39;;;;;;;;;;;3.00;85.50;;;1.78;68.89;102035.63;6151079;23;19920;-76
2023/01/21 10:31:11;;;;;;;;;;;3.00;85.60;;;1.75;69.05;102036.69;6151231;23;19916;-76
2023/01/21 10:33:38;;;;;;;;;;;3.00;85.60;;;1.82;68.81;102039.72;6149802;23;20007;-76
2023/01/21 10:36:38;;;;;;;;;;;3.00;85.70;;;1.90;68.72;102039.13;6148921;23;19920;-76
2023/01/21 10:39:12;;;;;;;;;;;3.00;85.70;;;1.97;68.58;102035.09;6149201;23;19917;-76
2023/01/21 10:41:56;;;;;;;;;;;3.10;85.80;;;1.97;68.31;102038.56;6149883;23;19927;-76
2023/01/21 10:44:26;;;;;;;;;;;3.10;85.60;;;1.93;68.37;102039.75;6150647;23;20007;-76
2023/01/21 10:47:01;;;;;;;;;;;3.10;85.60;;;1.98;68.62;102048.13;6150080;23;20268;-76
2023/01/21 10:49:36;;;;;;;;;;;3.10;85.60;;;1.96;68.85;102051.84;6151777;23;20444;-75
2023/01/21 10:52:08;;;;;;;;;;;3.10;85.70;;;1.84;68.71;102050.13;6152109;23;20264;-76
2023/01/21 10:54:45;;;;;;;;;;;3.10;85.50;;;1.75;69.19;102049.00;6151770;23;19920;-76
2023/01/21 10:57:24;;;;;;;;;;;3.10;85.50;;;1.82;69.19;102052.03;6150767;23;19920;-76
2023/01/21 10:59:52;;;;;;;;;;;3.10;85.70;;;1.72;69.49;102054.50;6152948;23;19923;-76
2023/01/21 11:02:25;;;;;;;;;;;3.10;85.60;;;1.51;70.22;102051.66;6152907;23;19927;-76
2023/01/21 11:04:52;;;;;;;;;;;3.00;85.80;;;1.67;70.30;102054.03;6152863;23;19920;-76
2023/01/21 11:07:21;;;;;;;;;;;3.00;86.20;;;1.84;69.73;102050.13;6152036;23;19924;-77
2023/01/21 11:09:48;;;;;;;;;;;3.10;86.20;;;1.80;69.61;102049.50;6151957;23;19931;-76
2023/01/21 11:12:19;;;;;;;;;;;3.10;86.10;;;1.86;69.59;102049.06;6152780;23;19927;-77
2023/01/21 11:14:50;;;;;;;;;;;3.10;85.90;;;1.98;69.45;102042.84;6152654;23;19917;-76
2023/01/21 11:17:33;;;;;;;;;;;3.10;86.30;;;2.06;69.47;102042.28;6152817;23;19927;-77
2023/01/21 11:20:02;;;;;;;;;;;3.20;86.30;;;2.01;69.32;102036.53;6150527;23;19920;-77
2023/01/21 11:22:30;;;;;;;;;;;3.30;86.20;;;2.12;69.29;102035.72;6152793;23;19927;-77
2023/01/21 11:24:57;;;;;;;;;;;3.20;86.10;;;2.14;69.01;102039.06;6152424;23;19917;-77
2023/01/21 11:27:33;;;;;;;;;;;3.20;86.00;;;2.13;68.45;102029.50;6151649;23;19999;-76
2023/01/21 11:30:00;;;;;;;;;;;3.20;85.70;;;2.09;68.87;102028.88;6152421;23;19926;-77
2023/01/21 11:32:28;;;;;;;;;;;3.30;85.80;;;2.13;69.03;102034.75;6152134;23;20204;-76
2023/01/21 11:35:01;;;;;;;;;;;3.30;86.10;;;2.04;69.70;102029.22;6151959;23;19921;-77
2023/01/21 11:37:29;;;;;;;;;;;3.30;86.10;;;2.12;69.46;102033.09;6151504;23;20366;-77
2023/01/21 11:39:58;;;;;;;;;;;3.30;86.10;;;2.01;69.51;102037.38;6152003;23;19923;-78